RoSS Sea — WDE3122 — position and weather

sailwx.info

Track history (hours):
 
Tides and Currents Weather Stations Pressure Air Temp Water Temp Dewpoint Dewpoint Depression Visibility Wind Speed Wind Dir Waves Ship Positions

RoSS Sea

Owner: Kirby Inland Marine, LP, Houston, TX. More information available from US FCC via Universal Licensing System and Coast Guard Vessel Documentation Center.

Last reported at 2016-Feb-05 11:33 UTC. Time now 2016-Feb-07 03:47 UTC.
Position N 40°39' W 074°07'.

Length 30 m; draft 5 m.

Type: Tow > 200 m length. MMSI: 367334360.

Date/timePositionNaut miles runAvg speedWind from/ knotsBaromVisibWave heightAir tempDewpointWater temp
2016-Feb-05 11:33N 40°39' W 074°07'0 0.0
2016-Feb-05 10:33N 40°39' W 074°07'0 0.0
2016-Feb-05 09:33N 40°39' W 074°07'0 0.0
2016-Feb-05 08:15N 40°39' W 074°07'0 0.0
2016-Feb-05 07:33N 40°39' W 074°07'0 0.0
2016-Feb-05 06:33N 40°39' W 074°07'0 0.0
2016-Feb-05 02:09N 40°39' W 074°07'2 3.4
2016-Feb-05 01:30N 40°39' W 074°10'0 0.0
2016-Feb-05 00:33N 40°38' W 074°10'0 0.0
2016-Feb-04 23:33N 40°38' W 074°10'0 0.0
2016-Feb-04 04:30N 40°38' W 074°10'0 0.0
2016-Feb-04 03:30N 40°38' W 074°10'0 0.0
2016-Feb-04 00:30N 40°38' W 074°10'0 0.0
2016-Feb-03 21:18N 40°38' W 074°10'0 0.0
2016-Feb-03 18:18N 40°39' W 074°10'0 0.0
2016-Feb-03 17:18N 40°39' W 074°10'0 0.0
2016-Feb-03 16:30N 40°39' W 074°10'0 0.0
2016-Feb-03 15:30N 40°39' W 074°10'0 0.0
2016-Feb-03 14:30N 40°39' W 074°10'0 0.0
2016-Feb-03 13:33N 40°39' W 074°10'0 0.0
2016-Feb-03 12:18N 40°39' W 074°10'0 0.0
2016-Feb-03 11:30N 40°39' W 074°10'0 0.0
2016-Feb-03 02:05N 40°39' W 074°10'510.4
2016-Feb-03 01:33N 40°40' W 074°03'2 0.2
2016-Feb-02 15:33N 40°42' W 074°02'9 0.8
2016-Feb-02 03:20N 40°37' W 074°12'2 0.4
2016-Feb-01 21:28N 40°39' W 074°10'1 0.2
2016-Feb-01 15:30N 40°38' W 074°12'1 1.3
2016-Feb-01 14:23N 40°39' W 074°10'0 0.0
2016-Feb-01 13:32N 40°39' W 074°10'0 0.0
2016-Feb-01 12:31N 40°39' W 074°10'0 0.0
2016-Feb-01 11:31N 40°39' W 074°10'0 0.0
2016-Feb-01 10:31N 40°39' W 074°10'0 0.0
2016-Feb-01 09:28N 40°39' W 074°10'0 0.0
2016-Feb-01 05:22N 40°39' W 074°10'4 5.2
2016-Feb-01 04:31N 40°39' W 074°04'5 5.3
2016-Feb-01 03:31N 40°39' W 074°11'2 0.2
2016-Jan-31 18:12N 40°37' W 074°12'4 6.8
2016-Jan-31 17:33N 40°39' W 074°07'1 1.4
2016-Jan-31 16:33N 40°38' W 074°09'1 0.9
2016-Jan-31 15:34N 40°39' W 074°10'0 0.0
2016-Jan-31 14:28N 40°39' W 074°10'0 0.0
2016-Jan-31 13:31N 40°39' W 074°10'0 0.0
2016-Jan-31 12:34N 40°39' W 074°10'0 0.0
2016-Jan-31 11:34N 40°39' W 074°10'0 0.0
2016-Jan-31 10:34N 40°39' W 074°10'0 0.0
2016-Jan-31 09:34N 40°39' W 074°10'0 0.0
2016-Jan-31 08:25N 40°39' W 074°10'0 0.0
2016-Jan-31 06:34N 40°39' W 074°10'1 0.3
2016-Jan-31 03:25N 40°39' W 074°11'0 0.0
2016-Jan-31 00:31N 40°39' W 074°11'1 0.1
2016-Jan-30 17:31N 40°38' W 074°12'0 0.0
2016-Jan-30 10:31N 40°38' W 074°12'1 0.7
2016-Jan-30 08:29N 40°38' W 074°10'0 0.0
2016-Jan-30 07:27N 40°38' W 074°10'1 0.6
2016-Jan-30 06:33N 40°39' W 074°10'1 0.2
2016-Jan-30 03:25N 40°38' W 074°10'3 1.1
2016-Jan-30 01:08N 40°37' W 074°12'3 4.5
2016-Jan-30 00:33N 40°39' W 074°10'0 0.2
2016-Jan-29 23:18N 40°38' W 074°10'0 0.0
2016-Jan-29 22:27N 40°38' W 074°10'0 0.0
2016-Jan-29 21:30N 40°38' W 074°10'4 3.8
2016-Jan-29 20:33N 40°39' W 074°05'4 3.8
2016-Jan-29 19:34N 40°41' W 074°01'13 0.9
2016-Jan-29 04:32N 40°49' W 073°47'8 7.7
2016-Jan-29 03:31N 40°46' W 073°57'8 8.8
2016-Jan-29 02:33N 40°40' W 074°04'7 6.8
2016-Jan-29 01:33N 40°38' W 074°12'2 1.9
2016-Jan-29 00:33N 40°39' W 074°10'0 0.1
2016-Jan-28 23:30N 40°38' W 074°10'0 0.0
2016-Jan-28 22:30N 40°38' W 074°10'0 0.0
2016-Jan-28 21:33N 40°38' W 074°10'0 0.0
2016-Jan-28 20:33N 40°38' W 074°10'0 0.0
2016-Jan-28 19:33N 40°38' W 074°10'0 0.0
2016-Jan-28 18:33N 40°38' W 074°10'0 0.0
2016-Jan-28 17:33N 40°38' W 074°10'0 0.1
2016-Jan-28 16:28N 40°39' W 074°10'1 1.5
2016-Jan-28 15:33N 40°38' W 074°12'3 1.6
2016-Jan-28 13:26N 40°35' W 074°13'6 6.5
2016-Jan-28 12:33N 40°39' W 074°07'9 8.7
2016-Jan-28 11:33N 40°44' W 073°58'9 8.4
2016-Jan-28 10:32N 40°48' W 073°48'20 6.9
2016-Jan-28 07:33N 41°01' W 073°27'8 7.9
2016-Jan-28 06:33N 41°04' W 073°17'7 0.5
2016-Jan-27 16:17N 41°09' W 073°11'2 1.8
2016-Jan-27 15:25N 41°08' W 073°12'0 0.1
2016-Jan-27 14:31N 41°08' W 073°12'0 0.1
2016-Jan-27 13:31N 41°08' W 073°12'0 0.0
2016-Jan-27 12:28N 41°08' W 073°12'0 0.1
2016-Jan-27 11:31N 41°08' W 073°12'0 0.0
2016-Jan-27 10:31N 41°08' W 073°12'0 0.0
2016-Jan-27 09:31N 41°08' W 073°12'0 0.0
2016-Jan-27 08:31N 41°08' W 073°12'0 0.0
2016-Jan-27 07:31N 41°08' W 073°12'0 0.0
2016-Jan-27 03:31N 41°08' W 073°12'0 0.0
2016-Jan-27 01:07N 41°08' W 073°12'0 0.0
2016-Jan-27 00:31N 41°08' W 073°12'0 0.0
2016-Jan-26 23:25N 41°08' W 073°12'0 0.0
2016-Jan-26 22:31N 41°08' W 073°12'0 0.0
2016-Jan-26 21:31N 41°08' W 073°12'0 0.0
2016-Jan-26 20:31N 41°08' W 073°12'0 0.0
2016-Jan-26 19:28N 41°08' W 073°12'0 0.0
2016-Jan-26 18:31N 41°08' W 073°12'0 0.0
2016-Jan-26 17:25N 41°08' W 073°12'0 0.0
2016-Jan-26 16:16N 41°08' W 073°12'0 0.1
2016-Jan-26 15:28N 41°08' W 073°12'0 0.0
2016-Jan-26 14:31N 41°08' W 073°12'0 0.0
2016-Jan-26 13:31N 41°08' W 073°12'0 0.0
2016-Jan-26 12:31N 41°08' W 073°12'  
Track history (hours):
 
Tides and Currents Weather Stations Pressure Air Temp Water Temp Dewpoint Dewpoint Depression Visibility Wind Speed Wind Dir Waves Ship Positions

RoSS Sea

Owner: Kirby Inland Marine, LP, Houston, TX. More information available from US FCC via Universal Licensing System and Coast Guard Vessel Documentation Center.

Last reported at 2016-Feb-05 11:33 UTC. Time now 2016-Feb-07 03:47 UTC.
Position N 40°39' W 074°07'.

Length 30 m; draft 5 m.

Type: Tow > 200 m length. MMSI: 367334360.

Date/timePositionNaut miles runAvg speedWind from/ knotsBaromVisibWave heightAir tempDewpointWater temp
2016-Feb-05 11:33N 40°39' W 074°07'0 0.0
2016-Feb-05 10:33N 40°39' W 074°07'0 0.0
2016-Feb-05 09:33N 40°39' W 074°07'0 0.0
2016-Feb-05 08:15N 40°39' W 074°07'0 0.0
2016-Feb-05 07:33N 40°39' W 074°07'0 0.0
2016-Feb-05 06:33N 40°39' W 074°07'0 0.0
2016-Feb-05 02:09N 40°39' W 074°07'2 3.4
2016-Feb-05 01:30N 40°39' W 074°10'0 0.0
2016-Feb-05 00:33N 40°38' W 074°10'0 0.0
2016-Feb-04 23:33N 40°38' W 074°10'0 0.0
2016-Feb-04 04:30N 40°38' W 074°10'0 0.0
2016-Feb-04 03:30N 40°38' W 074°10'0 0.0
2016-Feb-04 00:30N 40°38' W 074°10'0 0.0
2016-Feb-03 21:18N 40°38' W 074°10'0 0.0
2016-Feb-03 18:18N 40°39' W 074°10'0 0.0
2016-Feb-03 17:18N 40°39' W 074°10'0 0.0
2016-Feb-03 16:30N 40°39' W 074°10'0 0.0
2016-Feb-03 15:30N 40°39' W 074°10'0 0.0
2016-Feb-03 14:30N 40°39' W 074°10'0 0.0
2016-Feb-03 13:33N 40°39' W 074°10'0 0.0
2016-Feb-03 12:18N 40°39' W 074°10'0 0.0
2016-Feb-03 11:30N 40°39' W 074°10'0 0.0
2016-Feb-03 02:05N 40°39' W 074°10'510.4
2016-Feb-03 01:33N 40°40' W 074°03'2 0.2
2016-Feb-02 15:33N 40°42' W 074°02'9 0.8
2016-Feb-02 03:20N 40°37' W 074°12'2 0.4
2016-Feb-01 21:28N 40°39' W 074°10'1 0.2
2016-Feb-01 15:30N 40°38' W 074°12'1 1.3
2016-Feb-01 14:23N 40°39' W 074°10'0 0.0
2016-Feb-01 13:32N 40°39' W 074°10'0 0.0
2016-Feb-01 12:31N 40°39' W 074°10'0 0.0
2016-Feb-01 11:31N 40°39' W 074°10'0 0.0
2016-Feb-01 10:31N 40°39' W 074°10'0 0.0
2016-Feb-01 09:28N 40°39' W 074°10'0 0.0
2016-Feb-01 05:22N 40°39' W 074°10'4 5.2
2016-Feb-01 04:31N 40°39' W 074°04'5 5.3
2016-Feb-01 03:31N 40°39' W 074°11'2 0.2
2016-Jan-31 18:12N 40°37' W 074°12'4 6.8
2016-Jan-31 17:33N 40°39' W 074°07'1 1.4
2016-Jan-31 16:33N 40°38' W 074°09'1 0.9
2016-Jan-31 15:34N 40°39' W 074°10'0 0.0
2016-Jan-31 14:28N 40°39' W 074°10'0 0.0
2016-Jan-31 13:31N 40°39' W 074°10'0 0.0
2016-Jan-31 12:34N 40°39' W 074°10'0 0.0
2016-Jan-31 11:34N 40°39' W 074°10'0 0.0
2016-Jan-31 10:34N 40°39' W 074°10'0 0.0
2016-Jan-31 09:34N 40°39' W 074°10'0 0.0
2016-Jan-31 08:25N 40°39' W 074°10'0 0.0
2016-Jan-31 06:34N 40°39' W 074°10'1 0.3
2016-Jan-31 03:25N 40°39' W 074°11'0 0.0
2016-Jan-31 00:31N 40°39' W 074°11'1 0.1
2016-Jan-30 17:31N 40°38' W 074°12'0 0.0
2016-Jan-30 10:31N 40°38' W 074°12'1 0.7
2016-Jan-30 08:29N 40°38' W 074°10'0 0.0
2016-Jan-30 07:27N 40°38' W 074°10'1 0.6
2016-Jan-30 06:33N 40°39' W 074°10'1 0.2
2016-Jan-30 03:25N 40°38' W 074°10'3 1.1
2016-Jan-30 01:08N 40°37' W 074°12'3 4.5
2016-Jan-30 00:33N 40°39' W 074°10'0 0.2
2016-Jan-29 23:18N 40°38' W 074°10'0 0.0
2016-Jan-29 22:27N 40°38' W 074°10'0 0.0
2016-Jan-29 21:30N 40°38' W 074°10'4 3.8
2016-Jan-29 20:33N 40°39' W 074°05'4 3.8
2016-Jan-29 19:34N 40°41' W 074°01'13 0.9
2016-Jan-29 04:32N 40°49' W 073°47'8 7.7
2016-Jan-29 03:31N 40°46' W 073°57'8 8.8
2016-Jan-29 02:33N 40°40' W 074°04'7 6.8
2016-Jan-29 01:33N 40°38' W 074°12'2 1.9
2016-Jan-29 00:33N 40°39' W 074°10'0 0.1
2016-Jan-28 23:30N 40°38' W 074°10'0 0.0
2016-Jan-28 22:30N 40°38' W 074°10'0 0.0
2016-Jan-28 21:33N 40°38' W 074°10'0 0.0
2016-Jan-28 20:33N 40°38' W 074°10'0 0.0
2016-Jan-28 19:33N 40°38' W 074°10'0 0.0
2016-Jan-28 18:33N 40°38' W 074°10'0 0.0
2016-Jan-28 17:33N 40°38' W 074°10'0 0.1
2016-Jan-28 16:28N 40°39' W 074°10'1 1.5
2016-Jan-28 15:33N 40°38' W 074°12'3 1.6
2016-Jan-28 13:26N 40°35' W 074°13'6 6.5
2016-Jan-28 12:33N 40°39' W 074°07'9 8.7
2016-Jan-28 11:33N 40°44' W 073°58'9 8.4
2016-Jan-28 10:32N 40°48' W 073°48'20 6.9
2016-Jan-28 07:33N 41°01' W 073°27'8 7.9
2016-Jan-28 06:33N 41°04' W 073°17'7 0.5
2016-Jan-27 16:17N 41°09' W 073°11'2 1.8
2016-Jan-27 15:25N 41°08' W 073°12'0 0.1
2016-Jan-27 14:31N 41°08' W 073°12'0 0.1
2016-Jan-27 13:31N 41°08' W 073°12'0 0.0
2016-Jan-27 12:28N 41°08' W 073°12'0 0.1
2016-Jan-27 11:31N 41°08' W 073°12'0 0.0
2016-Jan-27 10:31N 41°08' W 073°12'0 0.0
2016-Jan-27 09:31N 41°08' W 073°12'0 0.0
2016-Jan-27 08:31N 41°08' W 073°12'0 0.0
2016-Jan-27 07:31N 41°08' W 073°12'0 0.0
2016-Jan-27 03:31N 41°08' W 073°12'0 0.0
2016-Jan-27 01:07N 41°08' W 073°12'0 0.0
2016-Jan-27 00:31N 41°08' W 073°12'0 0.0
2016-Jan-26 23:25N 41°08' W 073°12'0 0.0
2016-Jan-26 22:31N 41°08' W 073°12'0 0.0
2016-Jan-26 21:31N 41°08' W 073°12'0 0.0
2016-Jan-26 20:31N 41°08' W 073°12'0 0.0
2016-Jan-26 19:28N 41°08' W 073°12'0 0.0
2016-Jan-26 18:31N 41°08' W 073°12'0 0.0
2016-Jan-26 17:25N 41°08' W 073°12'0 0.0
2016-Jan-26 16:16N 41°08' W 073°12'0 0.1
2016-Jan-26 15:28N 41°08' W 073°12'0 0.0
2016-Jan-26 14:31N 41°08' W 073°12'0 0.0
2016-Jan-26 13:31N 41°08' W 073°12'0 0.0
2016-Jan-26 12:31N 41°08' W 073°12'  

Dump ship's entire track history